sensor_id;sensor_type;location;lat;lon;timestamp;temperature;humidity
51839;DHT22;37886;53.174;6.368;2022-12-18T00:00:58;-3.50;99.90
51839;DHT22;37886;53.174;6.368;2022-12-18T00:03:25;-3.60;99.90
51839;DHT22;37886;53.174;6.368;2022-12-18T00:05:52;-3.60;99.90
51839;DHT22;37886;53.174;6.368;2022-12-18T00:08:18;-3.60;99.90
51839;DHT22;37886;53.174;6.368;2022-12-18T00:10:44;-3.70;99.90
51839;DHT22;37886;53.174;6.368;2022-12-18T00:13:11;-3.70;99.90
51839;DHT22;37886;53.174;6.368;2022-12-18T00:15:38;-3.70;99.90
51839;DHT22;37886;53.174;6.368;2022-12-18T00:18:05;-3.70;99.90
51839;DHT22;37886;53.174;6.368;2022-12-18T00:20:31;-3.70;99.90
51839;DHT22;37886;53.174;6.368;2022-12-18T00:22:57;-3.70;99.90
51839;DHT22;37886;53.174;6.368;2022-12-18T00:25:23;-3.70;99.90
51839;DHT22;37886;53.174;6.368;2022-12-18T00:27:48;-3.70;99.90
51839;DHT22;37886;53.174;6.368;2022-12-18T00:30:14;-3.70;99.90
51839;DHT22;37886;53.174;6.368;2022-12-18T00:32:40;-3.80;99.90
51839;DHT22;37886;53.174;6.368;2022-12-18T00:35:08;-3.80;99.90
51839;DHT22;37886;53.174;6.368;2022-12-18T00:37:34;-3.80;99.90
51839;DHT22;37886;53.174;6.368;2022-12-18T00:40:00;-3.80;99.90
51839;DHT22;37886;53.174;6.368;2022-12-18T00:42:26;-3.80;99.90
51839;DHT22;37886;53.174;6.368;2022-12-18T00:45:10;-3.80;99.90
51839;DHT22;37886;53.174;6.368;2022-12-18T00:47:39;-3.80;99.90
51839;DHT22;37886;53.174;6.368;2022-12-18T00:50:05;-3.80;99.90
51839;DHT22;37886;53.174;6.368;2022-12-18T00:52:31;-3.90;99.90
51839;DHT22;37886;53.174;6.368;2022-12-18T00:54:57;-3.90;99.90
51839;DHT22;37886;53.174;6.368;2022-12-18T00:57:22;-3.90;99.90
51839;DHT22;37886;53.174;6.368;2022-12-18T01:00:27;-3.90;99.90
51839;DHT22;37886;53.174;6.368;2022-12-18T01:03:26;-4.00;99.90
51839;DHT22;37886;53.174;6.368;2022-12-18T01:05:52;-4.00;99.90
51839;DHT22;37886;53.174;6.368;2022-12-18T01:08:18;-4.00;99.90
51839;DHT22;37886;53.174;6.368;2022-12-18T01:10:44;-4.00;99.90
51839;DHT22;37886;53.174;6.368;2022-12-18T01:13:09;-4.10;99.90
51839;DHT22;37886;53.174;6.368;2022-12-18T01:15:38;-4.00;99.90
51839;DHT22;37886;53.174;6.368;2022-12-18T01:18:05;-4.00;99.90
51839;DHT22;37886;53.174;6.368;2022-12-18T01:20:31;-4.00;99.90
51839;DHT22;37886;53.174;6.368;2022-12-18T01:22:56;-4.00;99.90
51839;DHT22;37886;53.174;6.368;2022-12-18T01:25:22;-4.00;99.90
51839;DHT22;37886;53.174;6.368;2022-12-18T01:27:48;-4.10;99.90
51839;DHT22;37886;53.174;6.368;2022-12-18T01:30:14;-4.20;99.90
51839;DHT22;37886;53.174;6.368;2022-12-18T01:32:39;-4.20;99.90
51839;DHT22;37886;53.174;6.368;2022-12-18T01:35:05;-4.30;99.90
51839;DHT22;37886;53.174;6.368;2022-12-18T01:37:31;-4.30;99.90
51839;DHT22;37886;53.174;6.368;2022-12-18T01:39:57;-4.30;99.90
51839;DHT22;37886;53.174;6.368;2022-12-18T01:42:23;-4.30;99.90
51839;DHT22;37886;53.174;6.368;2022-12-18T01:52:41;-4.40;99.90
51839;DHT22;37886;53.174;6.368;2022-12-18T01:55:10;-4.50;99.90
51839;DHT22;37886;53.174;6.368;2022-12-18T01:57:37;-4.50;99.90
51839;DHT22;37886;53.174;6.368;2022-12-18T02:00:10;-4.60;99.90
51839;DHT22;37886;53.174;6.368;2022-12-18T02:02:36;-4.60;99.90
51839;DHT22;37886;53.174;6.368;2022-12-18T02:05:03;-4.60;99.90
51839;DHT22;37886;53.174;6.368;2022-12-18T02:10:14;-4.70;99.90
51839;DHT22;37886;53.174;6.368;2022-12-18T02:12:59;-4.70;99.90
51839;DHT22;37886;53.174;6.368;2022-12-18T02:15:43;-4.80;99.90
51839;DHT22;37886;53.174;6.368;2022-12-18T02:18:17;-4.70;99.90
51839;DHT22;37886;53.174;6.368;2022-12-18T02:21:11;-4.80;99.90
51839;DHT22;37886;53.174;6.368;2022-12-18T02:29:04;-4.90;99.90
51839;DHT22;37886;53.174;6.368;2022-12-18T02:31:38;-4.90;99.90
51839;DHT22;37886;53.174;6.368;2022-12-18T02:34:06;-4.90;99.90
51839;DHT22;37886;53.174;6.368;2022-12-18T02:36:33;-5.00;99.90
51839;DHT22;37886;53.174;6.368;2022-12-18T02:39:02;-5.00;99.90
51839;DHT22;37886;53.174;6.368;2022-12-18T02:41:30;-5.00;99.90
51839;DHT22;37886;53.174;6.368;2022-12-18T02:44:00;-5.00;99.90
51839;DHT22;37886;53.174;6.368;2022-12-18T02:46:31;-5.00;99.90
51839;DHT22;37886;53.174;6.368;2022-12-18T03:00:14;-5.00;99.90
51839;DHT22;37886;53.174;6.368;2022-12-18T03:02:52;-5.00;99.90
51839;DHT22;37886;53.174;6.368;2022-12-18T03:05:23;-5.00;99.90
51839;DHT22;37886;53.174;6.368;2022-12-18T03:07:57;-4.90;99.90
51839;DHT22;37886;53.174;6.368;2022-12-18T03:10:30;-5.00;99.90
51839;DHT22;37886;53.174;6.368;2022-12-18T03:13:09;-4.90;99.90
51839;DHT22;37886;53.174;6.368;2022-12-18T03:15:48;-5.00;99.90
51839;DHT22;37886;53.174;6.368;2022-12-18T03:18:30;-5.00;99.90
51839;DHT22;37886;53.174;6.368;2022-12-18T03:21:01;-5.00;99.90
51839;DHT22;37886;53.174;6.368;2022-12-18T03:23:36;-5.00;99.90
51839;DHT22;37886;53.174;6.368;2022-12-18T03:26:09;-5.00;99.90
51839;DHT22;37886;53.174;6.368;2022-12-18T03:28:39;-5.00;99.90
51839;DHT22;37886;53.174;6.368;2022-12-18T03:31:09;-5.10;99.90
51839;DHT22;37886;53.174;6.368;2022-12-18T03:33:42;-5.10;99.90
51839;DHT22;37886;53.174;6.368;2022-12-18T03:36:09;-5.20;99.90
51839;DHT22;37886;53.174;6.368;2022-12-18T03:38:35;-5.20;99.90
51839;DHT22;37886;53.174;6.368;2022-12-18T03:43:58;-5.30;99.90
51839;DHT22;37886;53.174;6.368;2022-12-18T03:46:35;-5.30;99.90
51839;DHT22;37886;53.174;6.368;2022-12-18T03:49:10;-5.30;99.90
51839;DHT22;37886;53.174;6.368;2022-12-18T03:51:42;-5.30;99.90
51839;DHT22;37886;53.174;6.368;2022-12-18T03:54:11;-5.30;99.90
51839;DHT22;37886;53.174;6.368;2022-12-18T03:56:42;-5.40;99.90
51839;DHT22;37886;53.174;6.368;2022-12-18T03:59:11;-5.30;99.90
51839;DHT22;37886;53.174;6.368;2022-12-18T04:01:41;-5.40;99.90
51839;DHT22;37886;53.174;6.368;2022-12-18T04:04:09;-5.40;99.90
51839;DHT22;37886;53.174;6.368;2022-12-18T04:06:37;-5.40;99.90
51839;DHT22;37886;53.174;6.368;2022-12-18T04:09:04;-5.40;99.90
51839;DHT22;37886;53.174;6.368;2022-12-18T04:11:30;-5.50;99.90
51839;DHT22;37886;53.174;6.368;2022-12-18T04:13:57;-5.50;99.90
51839;DHT22;37886;53.174;6.368;2022-12-18T04:16:26;-5.50;99.90
51839;DHT22;37886;53.174;6.368;2022-12-18T04:18:52;-5.40;99.90
51839;DHT22;37886;53.174;6.368;2022-12-18T04:21:18;-5.50;99.90
51839;DHT22;37886;53.174;6.368;2022-12-18T04:23:44;-5.40;99.90
51839;DHT22;37886;53.174;6.368;2022-12-18T04:26:10;-5.50;99.90
51839;DHT22;37886;53.174;6.368;2022-12-18T04:28:36;-5.50;99.90
51839;DHT22;37886;53.174;6.368;2022-12-18T04:31:02;-5.50;99.90
51839;DHT22;37886;53.174;6.368;2022-12-18T04:33:28;-5.50;99.90
51839;DHT22;37886;53.174;6.368;2022-12-18T04:35:53;-5.50;99.90
51839;DHT22;37886;53.174;6.368;2022-12-18T04:38:19;-5.40;99.90
51839;DHT22;37886;53.174;6.368;2022-12-18T04:40:48;-5.50;99.90
51839;DHT22;37886;53.174;6.368;2022-12-18T04:43:16;-5.50;99.90
51839;DHT22;37886;53.174;6.368;2022-12-18T04:45:42;-5.50;99.90
51839;DHT22;37886;53.174;6.368;2022-12-18T04:48:08;-5.50;99.90
51839;DHT22;37886;53.174;6.368;2022-12-18T04:50:34;-5.60;99.90
51839;DHT22;37886;53.174;6.368;2022-12-18T04:52:59;-5.60;99.90
51839;DHT22;37886;53.174;6.368;2022-12-18T04:55:25;-5.80;99.90
51839;DHT22;37886;53.174;6.368;2022-12-18T04:57:51;-5.80;99.90
51839;DHT22;37886;53.174;6.368;2022-12-18T05:00:17;-5.80;99.90
51839;DHT22;37886;53.174;6.368;2022-12-18T05:02:43;-5.80;99.90
51839;DHT22;37886;53.174;6.368;2022-12-18T05:05:09;-5.80;99.90
51839;DHT22;37886;53.174;6.368;2022-12-18T05:07:35;-5.80;99.90
51839;DHT22;37886;53.174;6.368;2022-12-18T05:10:00;-5.70;99.90
51839;DHT22;37886;53.174;6.368;2022-12-18T05:12:26;-5.80;99.90
51839;DHT22;37886;53.174;6.368;2022-12-18T05:14:52;-5.80;99.90
51839;DHT22;37886;53.174;6.368;2022-12-18T05:17:18;-5.80;99.90
51839;DHT22;37886;53.174;6.368;2022-12-18T05:19:43;-5.80;99.90
51839;DHT22;37886;53.174;6.368;2022-12-18T05:22:09;-5.80;99.90
51839;DHT22;37886;53.174;6.368;2022-12-18T05:24:35;-5.90;99.90
51839;DHT22;37886;53.174;6.368;2022-12-18T05:27:01;-5.90;99.90
51839;DHT22;37886;53.174;6.368;2022-12-18T05:29:27;-5.80;99.90
51839;DHT22;37886;53.174;6.368;2022-12-18T05:31:52;-5.80;99.90
51839;DHT22;37886;53.174;6.368;2022-12-18T05:34:18;-5.80;99.90
51839;DHT22;37886;53.174;6.368;2022-12-18T05:36:47;-5.90;99.90
51839;DHT22;37886;53.174;6.368;2022-12-18T05:39:13;-5.90;99.90
51839;DHT22;37886;53.174;6.368;2022-12-18T05:41:38;-6.00;99.90
51839;DHT22;37886;53.174;6.368;2022-12-18T05:44:04;-6.00;99.90
51839;DHT22;37886;53.174;6.368;2022-12-18T05:46:36;-6.10;99.90
51839;DHT22;37886;53.174;6.368;2022-12-18T05:49:02;-6.20;99.90
51839;DHT22;37886;53.174;6.368;2022-12-18T05:51:27;-6.20;99.90
51839;DHT22;37886;53.174;6.368;2022-12-18T05:53:53;-6.30;99.90
51839;DHT22;37886;53.174;6.368;2022-12-18T05:56:21;-6.30;99.90
51839;DHT22;37886;53.174;6.368;2022-12-18T05:58:47;-6.30;99.90
51839;DHT22;37886;53.174;6.368;2022-12-18T06:01:19;-6.30;99.90
51839;DHT22;37886;53.174;6.368;2022-12-18T06:03:46;-6.20;99.90
51839;DHT22;37886;53.174;6.368;2022-12-18T06:06:17;-6.20;99.90
51839;DHT22;37886;53.174;6.368;2022-12-18T06:08:43;-6.20;99.90
51839;DHT22;37886;53.174;6.368;2022-12-18T06:11:09;-6.20;99.90
51839;DHT22;37886;53.174;6.368;2022-12-18T06:13:35;-6.20;99.90
51839;DHT22;37886;53.174;6.368;2022-12-18T06:16:05;-6.20;99.90
51839;DHT22;37886;53.174;6.368;2022-12-18T06:18:31;-6.20;99.90
51839;DHT22;37886;53.174;6.368;2022-12-18T06:20:57;-6.10;99.90
51839;DHT22;37886;53.174;6.368;2022-12-18T06:23:26;-6.10;99.90
51839;DHT22;37886;53.174;6.368;2022-12-18T06:25:52;-6.10;99.90
51839;DHT22;37886;53.174;6.368;2022-12-18T06:28:17;-6.10;99.90
51839;DHT22;37886;53.174;6.368;2022-12-18T06:30:47;-6.10;99.90
51839;DHT22;37886;53.174;6.368;2022-12-18T06:33:14;-6.10;99.90
51839;DHT22;37886;53.174;6.368;2022-12-18T06:35:40;-6.10;99.90
51839;DHT22;37886;53.174;6.368;2022-12-18T06:38:06;-6.20;99.90
51839;DHT22;37886;53.174;6.368;2022-12-18T06:40:32;-6.20;99.90
51839;DHT22;37886;53.174;6.368;2022-12-18T06:42:58;-6.20;99.90
51839;DHT22;37886;53.174;6.368;2022-12-18T06:45:24;-6.20;99.90
51839;DHT22;37886;53.174;6.368;2022-12-18T06:47:50;-6.30;99.90
51839;DHT22;37886;53.174;6.368;2022-12-18T06:50:16;-6.30;99.90
51839;DHT22;37886;53.174;6.368;2022-12-18T06:52:42;-6.30;99.90
51839;DHT22;37886;53.174;6.368;2022-12-18T06:55:10;-6.40;99.90
51839;DHT22;37886;53.174;6.368;2022-12-18T06:57:36;-6.40;99.90
51839;DHT22;37886;53.174;6.368;2022-12-18T07:00:04;-6.40;99.90
51839;DHT22;37886;53.174;6.368;2022-12-18T07:02:34;-6.40;99.90
51839;DHT22;37886;53.174;6.368;2022-12-18T07:05:00;-6.40;99.90
51839;DHT22;37886;53.174;6.368;2022-12-18T07:07:26;-6.30;99.90
51839;DHT22;37886;53.174;6.368;2022-12-18T07:09:51;-6.20;99.90
51839;DHT22;37886;53.174;6.368;2022-12-18T07:12:17;-6.20;99.90
51839;DHT22;37886;53.174;6.368;2022-12-18T07:14:43;-6.20;99.90
51839;DHT22;37886;53.174;6.368;2022-12-18T07:17:09;-6.30;99.90
51839;DHT22;37886;53.174;6.368;2022-12-18T07:19:35;-6.30;99.90
51839;DHT22;37886;53.174;6.368;2022-12-18T07:22:01;-6.30;99.90
51839;DHT22;37886;53.174;6.368;2022-12-18T07:24:26;-6.20;99.90
51839;DHT22;37886;53.174;6.368;2022-12-18T07:26:52;-6.10;99.90
51839;DHT22;37886;53.174;6.368;2022-12-18T07:29:18;-6.10;99.90
51839;DHT22;37886;53.174;6.368;2022-12-18T07:31:46;-6.10;99.90
51839;DHT22;37886;53.174;6.368;2022-12-18T07:34:13;-6.10;99.90
51839;DHT22;37886;53.174;6.368;2022-12-18T07:36:39;-6.10;99.90
51839;DHT22;37886;53.174;6.368;2022-12-18T07:39:05;-6.00;99.90
51839;DHT22;37886;53.174;6.368;2022-12-18T07:41:31;-6.00;99.90
51839;DHT22;37886;53.174;6.368;2022-12-18T07:43:56;-6.00;99.90
51839;DHT22;37886;53.174;6.368;2022-12-18T07:46:22;-5.90;99.90
51839;DHT22;37886;53.174;6.368;2022-12-18T07:48:48;-5.90;99.90
51839;DHT22;37886;53.174;6.368;2022-12-18T07:51:14;-5.90;99.90
51839;DHT22;37886;53.174;6.368;2022-12-18T07:53:40;-5.80;99.90
51839;DHT22;37886;53.174;6.368;2022-12-18T07:56:08;-5.80;99.90
51839;DHT22;37886;53.174;6.368;2022-12-18T07:58:35;-5.80;99.90
51839;DHT22;37886;53.174;6.368;2022-12-18T08:01:11;-5.70;99.90
51839;DHT22;37886;53.174;6.368;2022-12-18T08:03:38;-5.60;99.90
51839;DHT22;37886;53.174;6.368;2022-12-18T08:06:06;-5.60;99.90
51839;DHT22;37886;53.174;6.368;2022-12-18T08:08:34;-5.60;99.90
51839;DHT22;37886;53.174;6.368;2022-12-18T08:11:00;-5.60;99.90
51839;DHT22;37886;53.174;6.368;2022-12-18T08:13:27;-5.40;99.90
51839;DHT22;37886;53.174;6.368;2022-12-18T08:16:01;-5.40;99.90
51839;DHT22;37886;53.174;6.368;2022-12-18T08:18:27;-5.30;99.90
51839;DHT22;37886;53.174;6.368;2022-12-18T08:20:54;-5.30;99.90
51839;DHT22;37886;53.174;6.368;2022-12-18T08:23:20;-5.30;99.90
51839;DHT22;37886;53.174;6.368;2022-12-18T08:25:46;-5.20;99.90
51839;DHT22;37886;53.174;6.368;2022-12-18T08:28:12;-5.20;99.90
51839;DHT22;37886;53.174;6.368;2022-12-18T08:30:38;-5.20;99.90
51839;DHT22;37886;53.174;6.368;2022-12-18T08:33:04;-5.20;99.90
51839;DHT22;37886;53.174;6.368;2022-12-18T08:35:30;-5.10;99.90
51839;DHT22;37886;53.174;6.368;2022-12-18T08:37:55;-5.10;99.90
51839;DHT22;37886;53.174;6.368;2022-12-18T08:40:21;-5.00;99.90
51839;DHT22;37886;53.174;6.368;2022-12-18T08:42:47;-4.90;99.90
51839;DHT22;37886;53.174;6.368;2022-12-18T08:45:31;-4.80;99.90
51839;DHT22;37886;53.174;6.368;2022-12-18T08:47:57;-4.80;99.90
51839;DHT22;37886;53.174;6.368;2022-12-18T08:50:22;-4.70;99.90
51839;DHT22;37886;53.174;6.368;2022-12-18T08:52:48;-4.70;99.90
51839;DHT22;37886;53.174;6.368;2022-12-18T08:55:14;-4.60;99.90
51839;DHT22;37886;53.174;6.368;2022-12-18T08:57:40;-4.60;99.90
51839;DHT22;37886;53.174;6.368;2022-12-18T09:00:06;-4.50;99.90
51839;DHT22;37886;53.174;6.368;2022-12-18T09:02:32;-4.50;99.90
51839;DHT22;37886;53.174;6.368;2022-12-18T09:05:01;-4.50;99.90
51839;DHT22;37886;53.174;6.368;2022-12-18T09:07:27;-4.40;99.90
51839;DHT22;37886;53.174;6.368;2022-12-18T09:09:53;-4.40;99.90
51839;DHT22;37886;53.174;6.368;2022-12-18T09:12:19;-4.30;99.90
51839;DHT22;37886;53.174;6.368;2022-12-18T09:14:45;-4.20;99.90
51839;DHT22;37886;53.174;6.368;2022-12-18T09:17:10;-4.20;99.90
51839;DHT22;37886;53.174;6.368;2022-12-18T09:19:36;-4.10;99.90
51839;DHT22;37886;53.174;6.368;2022-12-18T09:22:02;-4.10;99.90
51839;DHT22;37886;53.174;6.368;2022-12-18T09:24:27;-4.00;99.90
51839;DHT22;37886;53.174;6.368;2022-12-18T09:26:54;-3.90;99.90
51839;DHT22;37886;53.174;6.368;2022-12-18T09:29:22;-3.80;99.90
51839;DHT22;37886;53.174;6.368;2022-12-18T09:31:48;-3.70;99.90
51839;DHT22;37886;53.174;6.368;2022-12-18T09:34:15;-3.60;99.90
51839;DHT22;37886;53.174;6.368;2022-12-18T09:36:46;-3.60;99.90
51839;DHT22;37886;53.174;6.368;2022-12-18T09:39:12;-3.50;99.90
51839;DHT22;37886;53.174;6.368;2022-12-18T09:41:44;-3.40;99.90
51839;DHT22;37886;53.174;6.368;2022-12-18T09:44:25;-3.30;99.90
51839;DHT22;37886;53.174;6.368;2022-12-18T09:47:02;-3.20;99.90
51839;DHT22;37886;53.174;6.368;2022-12-18T09:49:30;-3.30;99.90
51839;DHT22;37886;53.174;6.368;2022-12-18T09:52:02;-3.30;99.90
51839;DHT22;37886;53.174;6.368;2022-12-18T09:54:38;-3.30;99.90
51839;DHT22;37886;53.174;6.368;2022-12-18T09:57:05;-3.30;99.90
51839;DHT22;37886;53.174;6.368;2022-12-18T09:59:35;-3.30;99.90
51839;DHT22;37886;53.174;6.368;2022-12-18T10:02:20;-3.40;99.90
51839;DHT22;37886;53.174;6.368;2022-12-18T10:05:11;-3.40;99.90
51839;DHT22;37886;53.174;6.368;2022-12-18T10:16:03;-3.40;99.90
51839;DHT22;37886;53.174;6.368;2022-12-18T10:18:56;-3.40;99.90
51839;DHT22;37886;53.174;6.368;2022-12-18T10:21:26;-3.30;99.90
51839;DHT22;37886;53.174;6.368;2022-12-18T10:24:42;-3.20;99.90
51839;DHT22;37886;53.174;6.368;2022-12-18T10:27:18;-3.20;99.90
51839;DHT22;37886;53.174;6.368;2022-12-18T10:29:47;-3.10;99.90
51839;DHT22;37886;53.174;6.368;2022-12-18T10:32:21;-3.20;99.90
51839;DHT22;37886;53.174;6.368;2022-12-18T10:34:49;-3.20;99.90
51839;DHT22;37886;53.174;6.368;2022-12-18T10:37:21;-3.20;99.90
51839;DHT22;37886;53.174;6.368;2022-12-18T10:40:09;-3.30;99.90
51839;DHT22;37886;53.174;6.368;2022-12-18T10:42:35;-3.30;99.90
51839;DHT22;37886;53.174;6.368;2022-12-18T10:45:16;-3.20;99.90
51839;DHT22;37886;53.174;6.368;2022-12-18T10:47:48;-3.20;99.90
51839;DHT22;37886;53.174;6.368;2022-12-18T10:50:28;-3.20;99.90
51839;DHT22;37886;53.174;6.368;2022-12-18T10:52:56;-3.10;99.90
51839;DHT22;37886;53.174;6.368;2022-12-18T10:55:27;-3.00;99.90
51839;DHT22;37886;53.174;6.368;2022-12-18T10:57:54;-3.00;99.90
51839;DHT22;37886;53.174;6.368;2022-12-18T11:00:38;-2.90;99.90
51839;DHT22;37886;53.174;6.368;2022-12-18T11:03:31;-2.90;99.90
51839;DHT22;37886;53.174;6.368;2022-12-18T11:06:09;-2.80;99.90
51839;DHT22;37886;53.174;6.368;2022-12-18T11:08:35;-2.70;99.90
51839;DHT22;37886;53.174;6.368;2022-12-18T11:11:02;-2.70;99.90
51839;DHT22;37886;53.174;6.368;2022-12-18T11:13:30;-2.60;99.90
51839;DHT22;37886;53.174;6.368;2022-12-18T11:15:57;-2.60;99.90
51839;DHT22;37886;53.174;6.368;2022-12-18T11:18:32;-2.60;99.90
51839;DHT22;37886;53.174;6.368;2022-12-18T11:21:10;-2.50;99.90
51839;DHT22;37886;53.174;6.368;2022-12-18T11:23:50;-2.50;99.90
51839;DHT22;37886;53.174;6.368;2022-12-18T11:26:17;-2.50;99.90
51839;DHT22;37886;53.174;6.368;2022-12-18T11:28:44;-2.50;99.90
51839;DHT22;37886;53.174;6.368;2022-12-18T11:31:18;-2.40;99.90
51839;DHT22;37886;53.174;6.368;2022-12-18T11:33:50;-2.30;99.90
51839;DHT22;37886;53.174;6.368;2022-12-18T11:36:18;-2.40;99.90
51839;DHT22;37886;53.174;6.368;2022-12-18T11:38:45;-2.30;99.90
51839;DHT22;37886;53.174;6.368;2022-12-18T11:41:36;-2.20;99.90
51839;DHT22;37886;53.174;6.368;2022-12-18T11:44:29;-2.20;99.90
51839;DHT22;37886;53.174;6.368;2022-12-18T11:47:08;-2.30;99.90
51839;DHT22;37886;53.174;6.368;2022-12-18T11:49:35;-2.20;99.90
51839;DHT22;37886;53.174;6.368;2022-12-18T11:52:23;-2.30;99.90
51839;DHT22;37886;53.174;6.368;2022-12-18T11:54:56;-2.20;99.90
51839;DHT22;37886;53.174;6.368;2022-12-18T12:00:13;-2.20;99.90
51839;DHT22;37886;53.174;6.368;2022-12-18T12:13:19;-2.00;99.90
51839;DHT22;37886;53.174;6.368;2022-12-18T12:40:22;-1.80;99.90
51839;DHT22;37886;53.174;6.368;2022-12-18T12:42:55;-1.70;99.90
51839;DHT22;37886;53.174;6.368;2022-12-18T12:45:45;-1.70;99.90
51839;DHT22;37886;53.174;6.368;2022-12-18T12:48:33;-1.60;99.90
51839;DHT22;37886;53.174;6.368;2022-12-18T12:51:03;-1.60;99.90
51839;DHT22;37886;53.174;6.368;2022-12-18T12:53:37;-1.60;99.90
51839;DHT22;37886;53.174;6.368;2022-12-18T12:56:04;-1.50;99.90
51839;DHT22;37886;53.174;6.368;2022-12-18T12:58:46;-1.40;99.90
51839;DHT22;37886;53.174;6.368;2022-12-18T13:01:24;-1.40;99.90
51839;DHT22;37886;53.174;6.368;2022-12-18T13:04:31;-1.50;99.90
51839;DHT22;37886;53.174;6.368;2022-12-18T13:07:00;-1.40;99.90
51839;DHT22;37886;53.174;6.368;2022-12-18T13:09:31;-1.30;99.90
51839;DHT22;37886;53.174;6.368;2022-12-18T13:12:01;-1.30;99.90
51839;DHT22;37886;53.174;6.368;2022-12-18T13:14:46;-1.30;99.90
51839;DHT22;37886;53.174;6.368;2022-12-18T13:19:51;-1.20;99.90
51839;DHT22;37886;53.174;6.368;2022-12-18T13:22:34;-1.20;99.90
51839;DHT22;37886;53.174;6.368;2022-12-18T13:25:00;-1.20;99.90
51839;DHT22;37886;53.174;6.368;2022-12-18T13:27:54;-1.20;99.90
51839;DHT22;37886;53.174;6.368;2022-12-18T13:30:41;-1.20;99.90
51839;DHT22;37886;53.174;6.368;2022-12-18T13:36:47;-1.10;99.90
51839;DHT22;37886;53.174;6.368;2022-12-18T13:38:55;-1.20;99.90
51839;DHT22;37886;53.174;6.368;2022-12-18T13:41:33;-1.20;99.90
51839;DHT22;37886;53.174;6.368;2022-12-18T13:50:49;-1.10;99.90
51839;DHT22;37886;53.174;6.368;2022-12-18T13:53:39;-1.10;99.90
51839;DHT22;37886;53.174;6.368;2022-12-18T13:56:07;-1.00;99.90
51839;DHT22;37886;53.174;6.368;2022-12-18T13:58:33;-1.10;99.90
51839;DHT22;37886;53.174;6.368;2022-12-18T14:00:59;-1.10;99.90
51839;DHT22;37886;53.174;6.368;2022-12-18T14:03:29;-1.20;99.90
51839;DHT22;37886;53.174;6.368;2022-12-18T14:06:01;-1.10;99.90
51839;DHT22;37886;53.174;6.368;2022-12-18T14:08:33;-1.10;99.90
51839;DHT22;37886;53.174;6.368;2022-12-18T14:11:00;-1.10;99.90
51839;DHT22;37886;53.174;6.368;2022-12-18T14:13:46;-1.10;99.90
51839;DHT22;37886;53.174;6.368;2022-12-18T14:16:14;-1.20;99.90
51839;DHT22;37886;53.174;6.368;2022-12-18T14:18:54;-1.20;99.90
51839;DHT22;37886;53.174;6.368;2022-12-18T14:21:27;-1.20;99.90
51839;DHT22;37886;53.174;6.368;2022-12-18T14:26:40;-1.30;99.90
51839;DHT22;37886;53.174;6.368;2022-12-18T14:29:24;-1.30;99.90
51839;DHT22;37886;53.174;6.368;2022-12-18T14:32:16;-1.30;99.90
51839;DHT22;37886;53.174;6.368;2022-12-18T14:34:50;-1.30;99.90
51839;DHT22;37886;53.174;6.368;2022-12-18T14:37:25;-1.30;99.90
51839;DHT22;37886;53.174;6.368;2022-12-18T14:39:59;-1.30;99.90
51839;DHT22;37886;53.174;6.368;2022-12-18T14:42:28;-1.20;99.90
51839;DHT22;37886;53.174;6.368;2022-12-18T14:47:59;-1.30;99.90
51839;DHT22;37886;53.174;6.368;2022-12-18T14:50:31;-1.30;99.90
51839;DHT22;37886;53.174;6.368;2022-12-18T14:52:57;-1.30;99.90
51839;DHT22;37886;53.174;6.368;2022-12-18T14:55:30;-1.30;99.90
51839;DHT22;37886;53.174;6.368;2022-12-18T15:02:04;-1.30;99.90
51839;DHT22;37886;53.174;6.368;2022-12-18T15:04:37;-1.30;99.90
51839;DHT22;37886;53.174;6.368;2022-12-18T15:09:37;-1.40;99.90
51839;DHT22;37886;53.174;6.368;2022-12-18T15:12:04;-1.40;99.90
51839;DHT22;37886;53.174;6.368;2022-12-18T15:16:56;-1.40;99.90
51839;DHT22;37886;53.174;6.368;2022-12-18T15:19:36;-1.40;99.90
51839;DHT22;37886;53.174;6.368;2022-12-18T15:22:03;-1.40;99.90
51839;DHT22;37886;53.174;6.368;2022-12-18T15:24:31;-1.40;99.90
51839;DHT22;37886;53.174;6.368;2022-12-18T15:27:00;-1.40;99.90
51839;DHT22;37886;53.174;6.368;2022-12-18T15:29:26;-1.40;99.90
51839;DHT22;37886;53.174;6.368;2022-12-18T15:32:01;-1.40;99.90
51839;DHT22;37886;53.174;6.368;2022-12-18T15:34:28;-1.40;99.90
51839;DHT22;37886;53.174;6.368;2022-12-18T15:36:53;-1.40;99.90
51839;DHT22;37886;53.174;6.368;2022-12-18T15:39:19;-1.50;99.90
51839;DHT22;37886;53.174;6.368;2022-12-18T15:41:45;-1.40;99.90
51839;DHT22;37886;53.174;6.368;2022-12-18T15:44:29;-1.40;99.90
51839;DHT22;37886;53.174;6.368;2022-12-18T15:46:56;-1.40;99.90
51839;DHT22;37886;53.174;6.368;2022-12-18T15:49:21;-1.50;99.90
51839;DHT22;37886;53.174;6.368;2022-12-18T15:51:58;-1.50;99.90
51839;DHT22;37886;53.174;6.368;2022-12-18T15:54:25;-1.50;99.90
51839;DHT22;37886;53.174;6.368;2022-12-18T15:57:10;-1.50;99.90
51839;DHT22;37886;53.174;6.368;2022-12-18T15:59:53;-1.50;99.90
51839;DHT22;37886;53.174;6.368;2022-12-18T16:02:19;-1.50;99.90
51839;DHT22;37886;53.174;6.368;2022-12-18T16:04:46;-1.40;99.90
51839;DHT22;37886;53.174;6.368;2022-12-18T16:07:12;-1.50;99.90
51839;DHT22;37886;53.174;6.368;2022-12-18T16:09:38;-1.60;99.90
51839;DHT22;37886;53.174;6.368;2022-12-18T16:12:06;-1.60;99.90
51839;DHT22;37886;53.174;6.368;2022-12-18T16:14:45;-1.60;99.90
51839;DHT22;37886;53.174;6.368;2022-12-18T16:17:11;-1.60;99.90
51839;DHT22;37886;53.174;6.368;2022-12-18T16:19:38;-1.60;99.90
51839;DHT22;37886;53.174;6.368;2022-12-18T16:22:03;-1.50;99.90
51839;DHT22;37886;53.174;6.368;2022-12-18T16:24:32;-1.50;99.90
51839;DHT22;37886;53.174;6.368;2022-12-18T16:27:00;-1.50;99.90
51839;DHT22;37886;53.174;6.368;2022-12-18T16:29:27;-1.50;99.90
51839;DHT22;37886;53.174;6.368;2022-12-18T16:31:57;-1.50;99.90
51839;DHT22;37886;53.174;6.368;2022-12-18T16:34:33;-1.50;99.90
51839;DHT22;37886;53.174;6.368;2022-12-18T16:37:05;-1.50;99.90
51839;DHT22;37886;53.174;6.368;2022-12-18T16:39:32;-1.60;99.90
51839;DHT22;37886;53.174;6.368;2022-12-18T16:41:59;-1.60;99.90
51839;DHT22;37886;53.174;6.368;2022-12-18T16:44:25;-1.60;99.90
51839;DHT22;37886;53.174;6.368;2022-12-18T16:46:51;-1.60;99.90
51839;DHT22;37886;53.174;6.368;2022-12-18T16:49:18;-1.50;99.90
51839;DHT22;37886;53.174;6.368;2022-12-18T16:51:45;-1.50;99.90
51839;DHT22;37886;53.174;6.368;2022-12-18T16:54:11;-1.50;99.90
51839;DHT22;37886;53.174;6.368;2022-12-18T16:56:38;-1.50;99.90
51839;DHT22;37886;53.174;6.368;2022-12-18T16:59:04;-1.50;99.90
51839;DHT22;37886;53.174;6.368;2022-12-18T17:01:31;-1.40;99.90
51839;DHT22;37886;53.174;6.368;2022-12-18T17:04:00;-1.40;99.90
51839;DHT22;37886;53.174;6.368;2022-12-18T17:06:28;-1.40;99.90
51839;DHT22;37886;53.174;6.368;2022-12-18T17:08:58;-1.40;99.90
51839;DHT22;37886;53.174;6.368;2022-12-18T17:11:25;-1.40;99.90
51839;DHT22;37886;53.174;6.368;2022-12-18T17:13:51;-1.40;99.90
51839;DHT22;37886;53.174;6.368;2022-12-18T17:16:18;-1.40;99.90
51839;DHT22;37886;53.174;6.368;2022-12-18T17:18:43;-1.30;99.90
51839;DHT22;37886;53.174;6.368;2022-12-18T17:21:10;-1.30;99.90
51839;DHT22;37886;53.174;6.368;2022-12-18T17:23:36;-1.30;99.90
51839;DHT22;37886;53.174;6.368;2022-12-18T17:26:03;-1.30;99.90
51839;DHT22;37886;53.174;6.368;2022-12-18T17:28:32;-1.30;99.90
51839;DHT22;37886;53.174;6.368;2022-12-18T17:30:58;-1.30;99.90